Time;durP1;ratioP1;P1;durP2;ratioP2;P2;SDS_P1;SDS_P2;PMS_P1;PMS_P2;Temp;Humidity;BMP_temperature;BMP_pressure;BME280_temperature;BME280_humidity;BME280_pressure;Samples;Min_cycle;Max_cycle;Signal;HPM_P1;HPM_P2
2022/01/08 00:00:33;;;;;;;;;0.00;0.00;;;;;5.97;69.82;100871.88;5057132;28;45406;-66
2022/01/08 00:02:58;;;;;;;;;0.00;0.00;;;;;6.05;69.90;100890.97;5057117;28;45518;-66
2022/01/08 00:05:24;;;;;;;;;0.00;0.00;;;;;6.06;70.20;100897.97;5056938;28;45339;-66
2022/01/08 00:07:50;;;;;;;;;0.00;0.00;;;;;6.10;70.88;100900.47;5057243;28;45260;-66
2022/01/08 00:10:16;;;;;;;;;0.00;0.00;;;;;6.15;69.63;100905.59;5056709;28;46059;-66
2022/01/08 00:12:41;;;;;;;;;0.00;0.00;;;;;6.16;69.91;100909.97;5056442;28;45350;-67
2022/01/08 00:15:07;;;;;;;;;0.00;0.00;;;;;6.19;70.09;100909.88;5056592;28;45340;-67
2022/01/08 00:17:34;;;;;;;;;0.00;0.00;;;;;6.15;69.46;100916.16;5056690;28;45560;-68
2022/01/08 00:19:59;;;;;;;;;0.00;0.00;;;;;6.10;69.51;100920.72;5056225;28;46292;-66
2022/01/08 00:22:25;;;;;;;;;0.00;0.00;;;;;6.04;69.77;100920.94;5056559;28;45442;-66
2022/01/08 00:24:53;;;;;;;;;0.00;0.00;;;;;6.09;70.36;100919.00;5038029;28;45502;-67
2022/01/08 00:27:22;;;;;;;;;1.00;0.00;;;;;6.12;70.22;100914.50;5056887;28;45543;-66
2022/01/08 00:29:48;;;;;;;;;0.00;0.00;;;;;6.06;69.40;100919.09;5055081;28;46159;-66
2022/01/08 00:32:14;;;;;;;;;0.00;0.00;;;;;6.05;69.20;100923.50;5016753;28;1124801;-67
2022/01/08 00:34:41;;;;;;;;;0.00;0.00;;;;;6.01;70.01;100927.19;5039127;28;45546;-66
2022/01/08 00:37:06;;;;;;;;;0.25;0.25;;;;;6.02;70.54;100920.13;5039672;28;45394;-67
2022/01/08 00:39:32;;;;;;;;;0.00;0.00;;;;;6.04;70.02;100932.34;5057105;28;45351;-64
2022/01/08 00:41:58;;;;;;;;;0.00;0.00;;;;;6.06;69.73;100940.22;5057472;28;45477;-66
2022/01/08 00:44:24;;;;;;;;;0.00;0.00;;;;;6.08;69.22;100954.22;5056524;28;45342;-68
2022/01/08 00:46:49;;;;;;;;;0.00;0.00;;;;;6.08;69.31;100949.81;5057715;28;45378;-66
2022/01/08 00:49:15;;;;;;;;;2.00;0.00;;;;;6.02;69.34;100943.88;5056778;28;46077;-67
2022/01/08 00:51:40;;;;;;;;;0.00;0.00;;;;;6.06;70.05;100959.56;5018760;28;45847;-66
2022/01/08 00:54:06;;;;;;;;;0.00;0.00;;;;;6.04;69.51;100964.03;5026244;28;45453;-67
2022/01/08 00:56:31;;;;;;;;;0.00;0.00;;;;;6.03;69.25;100967.59;5057461;28;45572;-67
2022/01/08 00:58:57;;;;;;;;;1.00;0.00;;;;;6.01;69.74;100968.56;5056930;28;45954;-67
2022/01/08 01:01:22;;;;;;;;;0.00;0.00;;;;;6.01;70.16;100981.75;5056559;28;45424;-66
2022/01/08 01:03:48;;;;;;;;;0.00;0.00;;;;;5.98;69.73;100982.69;5038044;28;45212;-69
2022/01/08 01:06:13;;;;;;;;;0.00;0.00;;;;;5.90;69.73;100972.38;5056577;28;45344;-67
2022/01/08 01:08:39;;;;;;;;;0.00;0.00;;;;;5.91;70.84;100979.41;5056522;28;45890;-67
2022/01/08 01:11:04;;;;;;;;;1.00;0.00;;;;;5.97;70.27;100993.31;5056591;28;45225;-67
2022/01/08 01:13:30;;;;;;;;;0.00;0.00;;;;;5.98;70.25;100980.06;5057174;28;45331;-66
2022/01/08 01:15:55;;;;;;;;;0.00;0.00;;;;;5.92;70.66;100974.97;5038966;28;45386;-66
2022/01/08 01:18:21;;;;;;;;;1.00;1.00;;;;;5.99;70.41;100980.91;5056175;28;47012;-66
2022/01/08 01:20:46;;;;;;;;;4.00;1.00;;;;;5.99;70.71;100975.63;5038509;28;45370;-67
2022/01/08 01:23:15;;;;;;;;;1.75;0.50;;;;;6.02;69.98;100986.13;5055419;28;45510;-66
2022/01/08 01:25:48;;;;;;;;;0.00;0.00;;;;;6.00;70.63;100993.22;5056155;28;45223;-67
2022/01/08 01:41:12;;;;;;;;;0.00;0.00;;;;;5.84;70.51;100966.38;5047843;28;45599;-67
2022/01/08 01:41:48;;;;;;;;;0.50;0.50;;;;;5.85;70.71;100973.38;5056467;28;45317;-67
2022/01/08 01:47:01;;;;;;;;;2.00;0.00;;;;;5.77;70.19;100975.41;5055353;28;45427;-67
2022/01/08 01:49:28;;;;;;;;;1.00;1.00;;;;;5.81;69.81;100983.19;5055818;28;45550;-66
2022/01/08 01:51:55;;;;;;;;;0.50;0.50;;;;;5.86;70.10;100988.34;5055703;28;45308;-66
2022/01/08 01:54:20;;;;;;;;;0.50;0.50;;;;;5.83;69.92;100991.91;5056136;28;45439;-67
2022/01/08 01:56:45;;;;;;;;;1.25;0.50;;;;;5.83;69.92;100991.91;5056252;28;45548;-66
2022/01/08 01:59:13;;;;;;;;;2.00;1.00;;;;;5.84;69.57;100992.78;5056385;28;45445;-67
2022/01/08 02:01:38;;;;;;;;;0.00;0.00;;;;;5.85;69.72;100992.72;5055824;28;45505;-66
2022/01/08 02:04:04;;;;;;;;;2.00;1.00;;;;;5.87;69.37;100998.84;5055697;28;45490;-67
2022/01/08 02:06:29;;;;;;;;;0.25;0.25;;;;;5.81;70.06;100987.59;5055685;28;45721;-66
2022/01/08 02:08:55;;;;;;;;;0.75;0.50;;;;;5.83;69.89;100983.13;5055929;28;46144;-66
2022/01/08 02:11:21;;;;;;;;;1.00;1.00;;;;;5.86;69.93;100983.94;5055767;28;45272;-67
2022/01/08 02:13:46;;;;;;;;;1.00;1.00;;;;;5.87;69.33;100980.38;5055806;28;45222;-66
2022/01/08 02:16:17;;;;;;;;;1.00;1.00;;;;;5.86;69.57;100991.84;5055909;28;45696;-66
2022/01/08 02:18:47;;;;;;;;;0.00;0.00;;;;;5.82;69.61;100986.69;5055908;28;45424;-67
2022/01/08 02:21:14;;;;;;;;;1.00;1.00;;;;;5.78;70.15;100982.41;5054605;28;45242;-67
2022/01/08 02:23:41;;;;;;;;;1.00;1.00;;;;;5.78;69.92;100996.47;5055548;28;45531;-68
2022/01/08 02:26:08;;;;;;;;;1.00;1.00;;;;;5.83;69.76;101006.88;5036591;28;45499;-66
2022/01/08 02:28:36;;;;;;;;;1.00;1.00;;;;;5.85;69.31;101011.19;5055100;28;46160;-67
2022/01/08 02:31:01;;;;;;;;;1.00;1.00;;;;;5.85;69.81;101008.56;5055313;28;45478;-68
2022/01/08 02:33:28;;;;;;;;;0.00;0.00;;;;;5.83;69.26;100999.84;5036939;28;45295;-68
2022/01/08 02:35:54;;;;;;;;;0.00;0.00;;;;;5.88;69.63;101003.22;5055920;28;45265;-66
2022/01/08 02:38:19;;;;;;;;;1.25;1.25;;;;;5.93;70.06;100999.59;5055016;28;47105;-67
2022/01/08 02:40:55;;;;;;;;;1.75;1.00;;;;;5.94;68.99;100996.03;5055410;28;45322;-67
2022/01/08 02:43:20;;;;;;;;;1.00;0.00;;;;;5.99;68.86;101015.25;5055513;28;45375;-69
2022/01/08 02:45:46;;;;;;;;;0.25;0.25;;;;;6.01;68.90;101008.16;5055643;28;45825;-67
2022/01/08 02:48:11;;;;;;;;;0.25;0.25;;;;;6.03;68.34;100998.41;5054477;28;45459;-67
2022/01/08 02:50:37;;;;;;;;;0.00;0.00;;;;;6.00;68.98;100999.38;5055462;28;45474;-68
2022/01/08 02:53:02;;;;;;;;;1.00;1.00;;;;;6.00;68.18;100998.50;5055350;28;45554;-68
2022/01/08 02:55:27;;;;;;;;;0.50;0.50;;;;;6.01;68.68;101005.53;5055545;28;45533;-67
2022/01/08 02:57:53;;;;;;;;;0.00;0.00;;;;;6.01;68.52;101010.81;5054940;28;46117;-67
2022/01/08 03:00:20;;;;;;;;;0.00;0.00;;;;;5.99;69.01;101021.41;5055504;28;45383;-66
2022/01/08 03:02:52;;;;;;;;;0.25;0.25;;;;;5.91;68.30;101012.84;5055431;28;45284;-68
2022/01/08 03:05:18;;;;;;;;;0.00;0.00;;;;;6.01;68.76;101016.09;5055656;28;45558;-67
2022/01/08 03:07:45;;;;;;;;;0.25;0.25;;;;;6.00;68.32;101011.72;5054418;28;45420;-67
2022/01/08 03:10:14;;;;;;;;;2.00;0.00;;;;;6.04;67.80;101030.03;5055381;28;45395;-66
2022/01/08 03:12:41;;;;;;;;;0.00;0.00;;;;;6.04;67.94;101011.56;5055243;28;45671;-67
2022/01/08 03:15:10;;;;;;;;;0.75;0.75;;;;;6.08;68.81;101012.31;5037848;28;45579;-66
2022/01/08 03:17:36;;;;;;;;;0.00;0.00;;;;;6.08;67.64;101001.75;5036880;28;47275;-66
2022/01/08 03:20:05;;;;;;;;;0.75;0.75;;;;;6.09;68.10;101006.13;5054708;28;45447;-66
2022/01/08 03:22:31;;;;;;;;;0.00;0.00;;;;;6.09;68.06;100998.22;5054678;28;45494;-66
2022/01/08 03:24:57;;;;;;;;;1.00;0.00;;;;;6.07;67.65;101000.91;5055252;28;45505;-67
2022/01/08 03:27:23;;;;;;;;;0.25;0.00;;;;;6.13;68.08;100997.22;5039655;28;46392;-68
2022/01/08 03:29:51;;;;;;;;;0.00;0.00;;;;;6.14;68.10;100993.66;5057765;28;45433;-67
2022/01/08 03:32:16;;;;;;;;;0.25;0.25;;;;;6.15;68.21;100984.84;5040234;28;45439;-67
2022/01/08 03:34:42;;;;;;;;;0.00;0.00;;;;;6.14;67.20;100991.03;5057180;28;45433;-67
2022/01/08 03:37:07;;;;;;;;;0.50;0.50;;;;;6.04;67.17;100979.00;5057789;28;45530;-68
2022/01/08 03:39:33;;;;;;;;;1.00;1.00;;;;;6.00;66.94;100980.03;5039993;28;45466;-67
2022/01/08 03:41:58;;;;;;;;;0.00;0.00;;;;;6.00;67.92;100977.41;5058482;28;45316;-67
2022/01/08 03:44:24;;;;;;;;;0.00;0.00;;;;;6.07;67.34;100989.47;5057679;28;45457;-67
2022/01/08 03:46:49;;;;;;;;;0.00;0.00;;;;;6.11;67.01;100997.25;5057883;28;46117;-67
2022/01/08 03:49:25;;;;;;;;;0.00;0.00;;;;;6.10;67.95;100998.16;5058388;28;45308;-67
2022/01/08 03:51:55;;;;;;;;;0.00;0.00;;;;;6.09;67.81;101009.63;5058370;28;45227;-65
2022/01/08 03:54:22;;;;;;;;;0.00;0.00;;;;;6.06;67.47;101004.44;5058540;28;45232;-67
2022/01/08 03:56:48;;;;;;;;;0.75;0.75;;;;;6.03;67.70;100999.28;5057174;28;46818;-67
2022/01/08 03:59:13;;;;;;;;;0.00;0.00;;;;;6.06;67.50;100998.31;5057120;28;45252;-67
2022/01/08 04:01:39;;;;;;;;;0.00;0.00;;;;;6.05;67.32;100993.94;5039723;28;45392;-66
2022/01/08 04:04:04;;;;;;;;;3.00;0.00;;;;;6.06;68.10;101000.94;5058239;28;45185;-66
2022/01/08 04:06:30;;;;;;;;;0.75;0.75;;;;;6.00;68.49;100987.94;5057513;28;46337;-67
2022/01/08 04:08:57;;;;;;;;;0.00;0.00;;;;;6.02;68.47;100988.75;5057630;28;45219;-67
2022/01/08 04:11:27;;;;;;;;;0.00;0.00;;;;;6.01;68.95;100992.31;5039174;28;45591;-68
2022/01/08 04:13:54;;;;;;;;;0.00;0.00;;;;;5.93;68.79;100996.97;5058240;28;45485;-67
2022/01/08 04:16:27;;;;;;;;;0.00;0.00;;;;;5.99;69.02;101009.97;5057337;28;45437;-68
2022/01/08 04:18:52;;;;;;;;;0.25;0.25;;;;;5.96;68.04;101008.28;5039420;28;45252;-67
2022/01/08 04:23:53;;;;;;;;;0.75;0.00;;;;;5.97;68.88;100998.59;5057471;28;45483;-66
2022/01/08 04:26:21;;;;;;;;;0.00;0.00;;;;;5.94;68.13;100988.13;5057096;28;45618;-67
2022/01/08 04:28:47;;;;;;;;;0.00;0.00;;;;;5.94;68.96;100996.91;5056548;28;45398;-67
2022/01/08 04:31:13;;;;;;;;;0.00;0.00;;;;;5.91;69.42;100989.94;5057347;28;45394;-67
2022/01/08 04:33:39;;;;;;;;;0.00;0.00;;;;;5.88;69.04;100991.78;5058067;28;45446;-66
2022/01/08 04:36:04;;;;;;;;;0.00;0.00;;;;;5.93;68.53;100987.25;5056063;28;45678;-68
2022/01/08 04:38:31;;;;;;;;;1.00;1.00;;;;;5.93;69.16;100996.97;5053804;28;45804;-67
2022/01/08 04:40:57;;;;;;;;;1.00;1.00;;;;;5.90;69.01;100998.78;5056359;28;45816;-67
2022/01/08 04:43:23;;;;;;;;;0.50;0.50;;;;;5.95;69.29;100993.34;5039022;28;45474;-67
2022/01/08 04:45:49;;;;;;;;;2.00;0.25;;;;;5.81;68.66;100962.06;5057390;28;45991;-66
2022/01/08 04:48:15;;;;;;;;;0.50;0.50;;;;;5.90;69.46;100980.31;5038639;28;45333;-68
2022/01/08 04:50:40;;;;;;;;;0.00;0.00;;;;;5.97;69.53;100988.03;5056637;28;45213;-67
2022/01/08 04:53:06;;;;;;;;;2.00;0.25;;;;;5.97;69.40;101001.22;5056892;28;45391;-68
2022/01/08 04:55:31;;;;;;;;;2.00;0.00;;;;;5.97;69.33;101012.66;5057154;28;46156;-67
2022/01/08 04:57:57;;;;;;;;;0.00;0.00;;;;;5.90;69.84;101013.75;5056469;28;45431;-67
2022/01/08 05:00:22;;;;;;;;;2.00;0.00;;;;;5.99;69.83;101025.78;5056704;28;45472;-67
2022/01/08 05:02:48;;;;;;;;;0.00;0.00;;;;;5.96;69.38;101016.19;5056063;28;45345;-66
2022/01/08 05:05:14;;;;;;;;;2.00;1.00;;;;;5.93;70.22;101020.72;5056891;28;46252;-66
2022/01/08 05:07:39;;;;;;;;;5.00;5.00;;;;;5.88;70.16;101021.69;5037099;28;45688;-68
2022/01/08 05:10:05;;;;;;;;;0.00;0.00;;;;;5.93;70.73;101028.63;5056759;28;45519;-67
2022/01/08 05:12:31;;;;;;;;;0.25;0.25;;;;;5.96;70.97;101025.91;5056531;28;45607;-68
2022/01/08 05:14:57;;;;;;;;;1.25;0.00;;;;;5.97;71.09;101024.97;5035873;28;46556;-66
2022/01/08 05:17:31;;;;;;;;;4.00;0.00;;;;;6.02;70.62;101023.09;5056407;28;45230;-66
2022/01/08 05:19:59;;;;;;;;;0.00;0.00;;;;;6.00;70.65;101019.63;5057004;28;45272;-67
2022/01/08 05:22:28;;;;;;;;;1.25;1.00;;;;;6.03;70.05;101016.91;5055931;28;45570;-68
2022/01/08 05:24:55;;;;;;;;;2.00;0.00;;;;;6.06;70.66;101012.38;5056504;28;45422;-68
2022/01/08 05:27:20;;;;;;;;;0.25;0.00;;;;;6.10;70.37;101007.84;5055821;28;45343;-67
2022/01/08 05:29:47;;;;;;;;;0.00;0.00;;;;;6.06;70.68;101008.88;5038290;28;45359;-66
2022/01/08 05:32:17;;;;;;;;;1.00;1.00;;;;;6.13;70.58;101021.84;5056747;28;45551;-66
2022/01/08 05:34:49;;;;;;;;;5.00;0.00;;;;;6.17;70.18;101006.75;5056528;28;45425;-67
2022/01/08 05:37:16;;;;;;;;;0.00;0.00;;;;;6.21;70.75;101006.59;5056697;28;45328;-66
2022/01/08 05:39:44;;;;;;;;;11.75;11.75;;;;;6.24;70.34;100987.16;5056954;28;45452;-67
2022/01/08 05:42:09;;;;;;;;;0.50;0.00;;;;;6.30;69.85;100986.97;5056272;28;45638;-67
2022/01/08 05:44:34;;;;;;;;;0.50;0.50;;;;;6.33;70.10;100978.94;5055715;28;46217;-67
2022/01/08 05:47:01;;;;;;;;;0.25;0.25;;;;;6.39;70.84;100976.13;5055818;28;45418;-68
2022/01/08 05:49:26;;;;;;;;;1.00;0.00;;;;;6.43;69.65;100975.09;5055632;28;45287;-66
2022/01/08 05:51:52;;;;;;;;;0.00;0.00;;;;;6.43;70.23;100972.47;5021317;28;45589;-66
2022/01/08 05:54:18;;;;;;;;;0.00;0.00;;;;;6.45;70.11;100975.03;5055751;28;46271;-65
2022/01/08 05:56:43;;;;;;;;;3.00;1.00;;;;;6.42;70.73;100960.16;5056052;28;45257;-67
2022/01/08 05:59:08;;;;;;;;;0.00;0.00;;;;;6.54;69.70;100968.59;5056112;28;45387;-67
2022/01/08 06:01:34;;;;;;;;;1.25;0.00;;;;;6.57;69.97;100979.06;5056247;28;45598;-66
2022/01/08 06:04:01;;;;;;;;;0.00;0.00;;;;;6.59;70.47;100977.22;5055428;28;45257;-67
2022/01/08 06:06:26;;;;;;;;;0.50;0.50;;;;;6.62;70.41;100982.41;5046923;28;45907;-67
2022/01/08 06:08:51;;;;;;;;;1.00;1.00;;;;;6.65;69.67;100983.19;5056040;28;45797;-67
2022/01/08 06:11:17;;;;;;;;;1.00;1.00;;;;;6.66;70.38;100986.69;5056348;28;45838;-67
2022/01/08 06:13:43;;;;;;;;;0.50;0.00;;;;;6.73;70.33;100999.63;5056396;28;46116;-68
2022/01/08 06:16:08;;;;;;;;;1.00;1.00;;;;;6.75;70.03;100983.72;5055560;28;45446;-67
2022/01/08 06:18:34;;;;;;;;;1.25;0.00;;;;;6.79;69.77;100986.22;5055574;28;45403;-66
2022/01/08 06:21:00;;;;;;;;;0.25;0.25;;;;;6.83;70.03;100978.19;5056028;28;45434;-68
2022/01/08 06:23:27;;;;;;;;;2.00;0.50;;;;;6.85;69.75;100969.28;5016428;28;47169;-67
2022/01/08 06:25:52;;;;;;;;;0.00;0.00;;;;;6.89;69.59;100962.94;5049057;28;45505;-67
2022/01/08 06:28:18;;;;;;;;;3.00;1.00;;;;;6.83;69.73;100944.69;5053823;28;45657;-66
2022/01/08 06:30:43;;;;;;;;;1.25;0.00;;;;;6.88;69.72;100948.00;5055899;28;45523;-67
2022/01/08 06:33:09;;;;;;;;;1.00;1.00;;;;;6.92;69.97;100954.94;5055247;28;46256;-67
2022/01/08 06:35:34;;;;;;;;;1.00;1.00;;;;;6.94;69.60;100968.09;5037265;28;45430;-67
2022/01/08 06:37:59;;;;;;;;;1.00;1.00;;;;;6.89;70.29;100965.59;5055836;28;45292;-69
2022/01/08 06:40:25;;;;;;;;;0.00;0.00;;;;;6.88;70.35;100963.88;5055369;28;45633;-68
2022/01/08 06:42:50;;;;;;;;;0.00;0.00;;;;;6.92;70.07;100957.59;5055556;28;46109;-68
2022/01/08 06:45:16;;;;;;;;;0.75;0.75;;;;;6.95;70.12;100957.47;5034943;28;45204;-68
2022/01/08 06:47:45;;;;;;;;;0.00;0.00;;;;;7.03;69.86;100951.88;5036228;28;45856;-68
2022/01/08 06:50:12;;;;;;;;;1.00;1.00;;;;;7.03;70.35;100942.19;5053572;28;45461;-68
2022/01/08 06:52:37;;;;;;;;;4.50;1.75;;;;;7.09;70.51;100944.63;5035523;28;45996;-68
2022/01/08 06:55:03;;;;;;;;;0.00;0.00;;;;;7.12;69.93;100945.41;5055296;28;45264;-68
2022/01/08 06:57:28;;;;;;;;;1.25;1.00;;;;;7.09;70.08;100941.97;5036897;28;45379;-68
2022/01/08 06:59:54;;;;;;;;;1.00;1.00;;;;;7.10;69.75;100934.91;5055749;28;45401;-67
2022/01/08 07:02:19;;;;;;;;;0.00;0.00;;;;;7.13;69.77;100952.44;5058500;28;45292;-69
2022/01/08 07:04:45;;;;;;;;;1.25;0.75;;;;;7.15;69.61;100945.28;5059278;28;45217;-67
2022/01/08 07:07:10;;;;;;;;;0.00;0.00;;;;;7.08;69.43;100924.38;5058437;28;45485;-68
2022/01/08 07:09:35;;;;;;;;;1.00;1.00;;;;;7.12;69.90;100929.53;5059148;28;45264;-68
2022/01/08 07:12:01;;;;;;;;;1.50;0.00;;;;;7.14;69.87;100943.56;5058340;28;46209;-69
2022/01/08 07:14:26;;;;;;;;;1.00;0.00;;;;;7.12;69.98;100932.19;5058609;28;45549;-68
2022/01/08 07:16:51;;;;;;;;;4.00;1.00;;;;;7.13;69.85;100931.28;5058685;28;45445;-68
2022/01/08 07:19:18;;;;;;;;;9.00;0.00;;;;;7.07;70.47;100917.38;5058714;28;45355;-68
2022/01/08 07:21:44;;;;;;;;;1.00;1.00;;;;;7.08;70.68;100915.59;5058145;28;46221;-68
2022/01/08 07:24:09;;;;;;;;;2.00;1.25;;;;;7.08;70.99;100908.50;5040367;28;45792;-69
2022/01/08 07:26:34;;;;;;;;;0.25;0.00;;;;;7.07;70.73;100912.06;5039506;28;45771;-68
2022/01/08 07:29:00;;;;;;;;;3.25;1.00;;;;;7.06;71.07;100904.19;5058941;28;45845;-67
2022/01/08 07:31:25;;;;;;;;;3.50;2.00;;;;;6.97;71.16;100897.44;5057844;28;46023;-69
2022/01/08 07:33:51;;;;;;;;;2.00;1.50;;;;;6.93;72.23;100909.06;5058849;28;46001;-68
2022/01/08 07:36:20;;;;;;;;;0.50;0.50;;;;;6.88;72.08;100895.13;5058744;28;45432;-67
2022/01/08 07:38:47;;;;;;;;;5.00;1.00;;;;;6.89;72.25;100902.16;5038543;28;45657;-70
2022/01/08 07:41:12;;;;;;;;;6.00;2.00;;;;;6.84;73.05;100897.94;5057300;28;46215;-67
2022/01/08 07:43:38;;;;;;;;;2.00;2.00;;;;;6.84;72.95;100897.94;5040248;28;45419;-67
2022/01/08 07:46:03;;;;;;;;;3.50;2.00;;;;;6.87;73.04;100897.84;5057677;28;45292;-68
2022/01/08 07:48:29;;;;;;;;;2.00;2.00;;;;;6.84;73.82;100893.53;5057218;28;45487;-68
2022/01/08 07:50:54;;;;;;;;;3.00;3.00;;;;;6.85;73.94;100889.97;5056832;28;45533;-67
2022/01/08 07:53:20;;;;;;;;;4.00;2.00;;;;;6.92;73.34;100896.78;5077543;28;45400;-68
2022/01/08 07:55:45;;;;;;;;;4.00;1.75;;;;;6.91;73.56;100884.47;5058049;28;45420;-69
2022/01/08 07:58:11;;;;;;;;;4.00;3.00;;;;;7.00;73.35;100889.41;5053225;28;45458;-69
2022/01/08 08:00:36;;;;;;;;;5.00;2.50;;;;;6.95;73.70;100866.69;5057274;28;46203;-71
2022/01/08 08:03:02;;;;;;;;;4.00;2.50;;;;;7.06;72.71;100878.63;5057969;28;45239;-74
2022/01/08 08:05:27;;;;;;;;;4.00;4.00;;;;;7.10;72.55;100880.22;5039481;28;45371;-70
2022/01/08 08:07:54;;;;;;;;;4.50;2.00;;;;;7.10;72.63;100864.34;5038967;28;45757;-70
2022/01/08 08:10:22;;;;;;;;;4.00;2.00;;;;;7.14;72.24;100874.81;5057207;28;45296;-71
2022/01/08 08:12:47;;;;;;;;;2.00;2.00;;;;;7.13;73.01;100879.22;5038075;28;45408;-70
2022/01/08 08:15:15;;;;;;;;;4.00;4.00;;;;;7.14;72.59;100866.88;5056961;28;45371;-70
2022/01/08 08:17:40;;;;;;;;;4.75;2.00;;;;;7.19;73.14;100859.66;5057510;28;45421;-70
2022/01/08 08:20:07;;;;;;;;;5.00;3.00;;;;;7.19;72.62;100852.56;5056779;28;45482;-69
2022/01/08 08:22:32;;;;;;;;;2.00;2.00;;;;;7.18;72.58;100844.69;5038314;28;45310;-69
2022/01/08 08:24:58;;;;;;;;;4.50;4.00;;;;;7.29;72.84;100858.34;5056382;28;45428;-70
2022/01/08 08:27:24;;;;;;;;;8.75;5.50;;;;;7.30;72.64;100850.38;5057902;28;45719;-68
2022/01/08 08:29:49;;;;;;;;;3.00;2.00;;;;;7.33;72.83;100849.41;5057208;28;46102;-70
2022/01/08 08:32:14;;;;;;;;;4.50;4.50;;;;;7.30;72.96;100831.00;5057261;28;45494;-71
2022/01/08 08:34:40;;;;;;;;;6.00;4.00;;;;;7.40;73.25;100830.56;5057127;28;45443;-70
2022/01/08 08:37:06;;;;;;;;;6.00;2.50;;;;;7.41;73.22;100820.84;5057111;28;45632;-70
2022/01/08 08:39:31;;;;;;;;;7.00;4.25;;;;;7.46;73.70;100820.69;5057146;28;45340;-70
2022/01/08 08:41:57;;;;;;;;;2.50;2.50;;;;;7.49;74.13;100828.50;5057421;28;45502;-70
2022/01/08 08:44:22;;;;;;;;;4.25;2.00;;;;;7.49;74.32;100821.41;5057797;28;45446;-68
2022/01/08 08:46:48;;;;;;;;;3.50;2.00;;;;;7.48;74.80;100817.03;5056863;28;45544;-66
2022/01/08 08:49:14;;;;;;;;;4.25;2.50;;;;;7.45;74.85;100801.28;5056931;28;45482;-68
2022/01/08 08:51:39;;;;;;;;;4.00;4.00;;;;;7.47;75.16;100804.72;5038747;28;45454;-66
2022/01/08 08:54:05;;;;;;;;;3.50;3.50;;;;;7.49;75.81;100800.22;5057135;28;45380;-70
2022/01/08 08:56:31;;;;;;;;;5.25;4.75;;;;;7.54;75.91;100792.97;5055547;28;45501;-69
2022/01/08 08:58:56;;;;;;;;;6.00;4.00;;;;;7.59;75.72;100787.50;5057840;28;45685;-68
2022/01/08 09:01:23;;;;;;;;;5.25;4.00;;;;;7.60;75.89;100790.09;5039725;28;45505;-69
2022/01/08 09:03:49;;;;;;;;;5.25;3.00;;;;;7.58;76.99;100786.66;5056458;28;45240;-66
2022/01/08 09:06:14;;;;;;;;;9.50;4.75;;;;;7.57;76.46;100797.28;5039095;28;45520;-66
2022/01/08 09:08:40;;;;;;;;;9.00;4.00;;;;;7.58;77.43;100777.84;5053303;28;45290;-66
2022/01/08 09:11:05;;;;;;;;;9.75;4.00;;;;;7.56;77.02;100767.31;5056925;28;45265;-66
2022/01/08 09:13:31;;;;;;;;;5.25;4.00;;;;;7.65;78.03;100776.66;5056896;28;45605;-67
2022/01/08 09:15:56;;;;;;;;;4.75;3.75;;;;;7.39;76.91;100722.13;5057308;28;45729;-68
2022/01/08 09:18:22;;;;;;;;;7.25;4.75;;;;;7.74;77.01;100770.13;5057350;28;46111;-67
2022/01/08 09:20:48;;;;;;;;;5.75;4.00;;;;;7.77;77.26;100770.00;5038748;28;45386;-64
2022/01/08 09:23:14;;;;;;;;;4.75;4.00;;;;;7.80;76.69;100753.97;5051205;28;45466;-70
2022/01/08 09:25:40;;;;;;;;;5.75;5.00;;;;;7.88;76.99;100751.88;5056976;28;45402;-68
2022/01/08 09:28:06;;;;;;;;;5.00;4.00;;;;;7.93;76.79;100756.03;5056400;28;45496;-69
2022/01/08 09:30:31;;;;;;;;;3.25;3.25;;;;;8.00;76.28;100756.66;5038298;28;45320;-69
2022/01/08 09:32:57;;;;;;;;;4.75;4.75;;;;;8.02;76.02;100743.34;5056989;28;45442;-70
2022/01/08 09:35:25;;;;;;;;;2.00;2.00;;;;;8.12;76.31;100744.66;5057175;28;45267;-71
2022/01/08 09:37:51;;;;;;;;;7.50;5.25;;;;;8.18;76.61;100758.50;5038334;28;46891;-68
2022/01/08 09:40:18;;;;;;;;;4.75;2.75;;;;;8.20;75.74;100743.41;5056571;28;45233;-71
2022/01/08 09:42:44;;;;;;;;;5.25;4.75;;;;;8.22;76.63;100740.69;5056913;28;45366;-64
2022/01/08 09:45:11;;;;;;;;;4.75;3.25;;;;;8.23;76.04;100737.13;5055351;28;45486;-66
2022/01/08 09:47:38;;;;;;;;;6.50;3.25;;;;;8.24;76.58;100736.19;5055684;28;45433;-66
2022/01/08 09:50:05;;;;;;;;;2.50;2.50;;;;;8.25;76.47;100728.16;5055521;28;45265;-71
2022/01/08 09:52:31;;;;;;;;;9.25;5.00;;;;;8.36;76.60;100732.16;5058567;28;45435;-61
2022/01/08 09:54:57;;;;;;;;;3.25;3.25;;;;;8.32;76.45;100704.03;5056646;28;45216;-62
2022/01/08 09:57:23;;;;;;;;;3.50;3.50;;;;;8.47;75.84;100708.69;5055938;28;45477;-62
2022/01/08 09:59:48;;;;;;;;;3.25;3.25;;;;;8.51;75.77;100704.97;5055127;28;45890;-60
2022/01/08 10:02:20;;;;;;;;;3.50;3.50;;;;;8.53;76.01;100693.34;5055695;28;45543;-62
2022/01/08 10:04:46;;;;;;;;;3.25;2.75;;;;;8.60;76.94;100706.34;5038083;28;45387;-59
2022/01/08 10:07:20;;;;;;;;;6.50;5.00;;;;;8.63;76.63;100690.28;5037269;28;46926;-56
2022/01/08 10:10:15;;;;;;;;;3.00;3.00;;;;;8.70;76.62;100683.75;5055779;28;45315;-55
2022/01/08 10:12:48;;;;;;;;;6.50;6.50;;;;;8.77;75.81;100678.09;5055941;28;45238;-55
2022/01/08 10:18:01;;;;;;;;;4.75;4.50;;;;;8.78;76.13;100676.31;5035656;28;45360;-57
2022/01/08 10:20:40;;;;;;;;;4.50;2.75;;;;;8.86;75.84;100664.41;5053011;28;45256;-63
2022/01/08 10:23:10;;;;;;;;;3.00;2.00;;;;;8.87;75.37;100665.28;5055690;28;45433;-66
2022/01/08 10:25:35;;;;;;;;;4.50;2.25;;;;;8.77;75.59;100656.91;5055340;28;45624;-65
2022/01/08 10:28:01;;;;;;;;;7.75;5.50;;;;;8.90;75.96;100661.63;5037682;28;47724;-63
2022/01/08 10:30:27;;;;;;;;;5.00;5.00;;;;;8.91;76.11;100648.28;5056054;28;45276;-68
2022/01/08 10:32:57;;;;;;;;;8.00;6.50;;;;;8.94;76.80;100655.22;5037578;28;45460;-67
2022/01/08 10:35:52;;;;;;;;;7.50;5.00;;;;;8.94;76.10;100644.59;5039727;28;45348;-66
2022/01/08 10:38:17;;;;;;;;;7.50;2.25;;;;;8.94;76.36;100637.50;5058953;28;46047;-66
2022/01/08 10:40:43;;;;;;;;;6.25;5.00;;;;;8.88;77.06;100632.53;5058482;28;45443;-68
2022/01/08 10:43:23;;;;;;;;;5.25;2.00;;;;;8.89;77.17;100613.03;5059323;28;45302;-67
2022/01/08 10:45:48;;;;;;;;;4.50;2.00;;;;;8.98;77.58;100619.66;5058948;28;45394;-65
2022/01/08 10:48:24;;;;;;;;;7.25;4.50;;;;;8.97;78.22;100612.63;5057976;28;45469;-69
2022/01/08 10:50:50;;;;;;;;;5.75;5.75;;;;;8.94;78.33;100610.13;5040715;28;45419;-65
2022/01/08 10:53:15;;;;;;;;;5.00;4.50;;;;;8.92;77.85;100598.75;5036567;28;45525;-67
2022/01/08 10:55:41;;;;;;;;;6.00;3.00;;;;;8.95;78.14;100603.88;5058676;28;45505;-66
2022/01/08 10:58:07;;;;;;;;;6.75;6.75;;;;;8.91;78.48;100589.06;5040489;28;45502;-65
2022/01/08 11:00:33;;;;;;;;;10.75;2.75;;;;;8.89;78.18;100583.84;5058760;28;45448;-67
2022/01/08 11:02:59;;;;;;;;;9.50;4.25;;;;;8.85;78.48;100569.88;5059461;28;45264;-66
2022/01/08 11:05:25;;;;;;;;;9.75;5.00;;;;;8.90;78.50;100568.78;5059151;28;45648;-66
2022/01/08 11:07:51;;;;;;;;;12.75;3.00;;;;;8.85;79.24;100561.03;5040372;28;45360;-67
2022/01/08 11:10:19;;;;;;;;;6.50;4.50;;;;;8.85;78.50;100561.94;5058897;28;45273;-69
2022/01/08 11:12:47;;;;;;;;;6.75;2.75;;;;;8.76;78.13;100550.91;5058694;28;45404;-70
2022/01/08 11:17:48;;;;;;;;;2.00;2.00;;;;;8.77;78.64;100521.66;5058380;28;45531;-68
2022/01/08 11:20:19;;;;;;;;;3.00;3.00;;;;;8.90;78.60;100529.00;5058705;28;45240;-70
2022/01/08 11:22:47;;;;;;;;;4.50;2.00;;;;;8.85;79.30;100521.25;5058659;28;45357;-70
2022/01/08 11:25:18;;;;;;;;;8.50;6.25;;;;;8.88;78.57;100507.88;5058914;28;45735;-68
2022/01/08 11:28:06;;;;;;;;;3.75;2.75;;;;;8.94;78.10;100517.31;5056889;28;46297;-67
2022/01/08 11:30:36;;;;;;;;;8.75;6.75;;;;;8.94;78.45;100514.66;5056399;28;45413;-67
2022/01/08 11:35:59;;;;;;;;;3.00;3.00;;;;;8.93;77.82;100499.66;5045574;28;45623;-63
2022/01/08 11:38:27;;;;;;;;;5.50;3.00;;;;;8.93;78.43;100481.97;5058502;28;46607;-66
2022/01/08 11:40:55;;;;;;;;;3.00;1.75;;;;;8.97;78.63;100482.66;5062731;28;45278;-68
2022/01/08 11:43:24;;;;;;;;;7.75;4.50;;;;;9.01;78.45;100465.66;5060253;28;45476;-66
2022/01/08 11:46:00;;;;;;;;;3.00;2.00;;;;;9.00;78.55;100458.66;5058450;28;45551;-68
2022/01/08 11:48:30;;;;;;;;;6.00;4.50;;;;;8.99;77.47;100452.50;5052647;28;46261;-65
2022/01/08 11:50:57;;;;;;;;;4.75;4.00;;;;;9.03;78.35;100434.63;5055672;28;45679;-68
2022/01/08 11:53:30;;;;;;;;;10.00;10.00;;;;;8.98;77.59;100433.97;5038247;28;45507;-68
2022/01/08 11:55:59;;;;;;;;;3.50;3.50;;;;;8.96;77.86;100419.94;5054808;28;45473;-70